Columbus Metropolitan Airport
KCSG : now visible

Airfield :











YOU CAN JOIN US ON...

 
LOGIN :

Register | Disclaimer

   EN    FR    IT 

 









Legend :    VFR   Marginal VFR   IFR   Intensive IFR   Very Intensive IFR
Visi :
Ceiling :
>= 8 km
>= 3000ft
5 to 8 km
1000 to 3000 ft
1500m to 5 km
500 to 1000 ft
800 to 1500m
200 to 500 ft
< 800m
< 200 ft
Symbols :   Thunderstorms  Fog  Heavy snow  Heavy precipitations  Wind > 20 kt






- Airport Elevation : 397 ft
- IATA code : CSG


KCSG - Columbus Metropolitan

CURRENT METAR :
  • 130414Z AUTO 09016KT 10SM -RA OVC011 06/04 A3026 RMK AO2 PRESFR P0001 T00610044

EXPIRED METARs :
  • 130351Z AUTO 09007KT 9SM -RA OVC009 06/04 A3031 RMK AO2 CIG 006V013 SLP263 P0010 T00610044
  • 130251Z AUTO 10008KT 6SM RA BR BKN010 OVC014 06/04 A3030 RMK AO2 RAB0152 CIG 008V013 SLP261 P0003 60012 T00610044 56011
  • 130231Z AUTO 09009KT 10SM -RA OVC014 07/04 A3030 RMK AO2 RAB0152 P0001 T00670044
  • 130151Z AUTO 09010KT 10SM BKN015 OVC020 07/04 A3031 RMK AO2 RAE32 SLP265 P0008 T00670044

TAF KCSG
Valid from the 13 at 04:00 until the 14 at 00:00 UTC


130334Z 1304/1324 09008KT 6SM -SHRA BR BKN011 OVC016
FM130500 09006KT 5SM -SHRA BR OVC009
FM130700 08008KT 4SM -SHRA BR OVC006
FM131400 09007KT 2SM -SHRA BR OVC004



MET'MAP, your aeronautical weather chart ! - Copyright ORBIFLY December 2007 - Disclaimer

ORBIFLY MET'MAP TEAM :

Programming & Development : Alexandra Zaïnal
Concept & original design : Baudouin d'Aumeries
Assistance for programming : Marc-Olivier Méhu
Technical & hardware support : Manuel Goepfert

Contact : metmap@orbifly.com




SOURCES & CREDITS :

   NOAA       Earth
Advisory